sensor_id;sensor_type;location;lat;lon;timestamp;P1;durP1;ratioP1;P2;durP2;ratioP2
42662;SDS011;44330;51.360;6.686;2022-07-29T00:01:05;6.78;;;2.63;;
42662;SDS011;44330;51.360;6.686;2022-07-29T00:03:31;13.57;;;2.47;;
42662;SDS011;44330;51.360;6.686;2022-07-29T00:05:57;6.53;;;2.13;;
42662;SDS011;44330;51.360;6.686;2022-07-29T00:08:23;4.90;;;1.60;;
42662;SDS011;44330;51.360;6.686;2022-07-29T00:10:48;18.40;;;2.10;;
42662;SDS011;44330;51.360;6.686;2022-07-29T00:13:14;3.92;;;1.40;;
42662;SDS011;44330;51.360;6.686;2022-07-29T00:15:39;14.60;;;4.97;;
42662;SDS011;44330;51.360;6.686;2022-07-29T00:18:05;6.93;;;1.67;;
42662;SDS011;44330;51.360;6.686;2022-07-29T00:20:31;9.27;;;1.30;;
42662;SDS011;44330;51.360;6.686;2022-07-29T00:22:56;6.93;;;1.50;;
42662;SDS011;44330;51.360;6.686;2022-07-29T00:25:22;9.52;;;1.65;;
42662;SDS011;44330;51.360;6.686;2022-07-29T00:27:47;4.90;;;1.73;;
42662;SDS011;44330;51.360;6.686;2022-07-29T00:30:13;11.70;;;1.67;;
42662;SDS011;44330;51.360;6.686;2022-07-29T00:32:39;4.60;;;1.83;;
42662;SDS011;44330;51.360;6.686;2022-07-29T00:35:05;8.95;;;1.88;;
42662;SDS011;44330;51.360;6.686;2022-07-29T00:37:49;8.13;;;1.73;;
42662;SDS011;44330;51.360;6.686;2022-07-29T00:40:15;7.07;;;1.92;;
42662;SDS011;44330;51.360;6.686;2022-07-29T00:42:44;9.77;;;2.28;;
42662;SDS011;44330;51.360;6.686;2022-07-29T00:45:11;7.05;;;2.10;;
42662;SDS011;44330;51.360;6.686;2022-07-29T00:47:36;10.60;;;1.90;;
42662;SDS011;44330;51.360;6.686;2022-07-29T00:50:05;6.53;;;1.30;;
42662;SDS011;44330;51.360;6.686;2022-07-29T00:52:36;12.13;;;1.83;;
42662;SDS011;44330;51.360;6.686;2022-07-29T00:55:03;4.10;;;1.52;;
42662;SDS011;44330;51.360;6.686;2022-07-29T00:57:31;5.07;;;1.67;;
42662;SDS011;44330;51.360;6.686;2022-07-29T00:59:56;13.40;;;1.90;;
42662;SDS011;44330;51.360;6.686;2022-07-29T01:02:22;9.70;;;2.33;;
42662;SDS011;44330;51.360;6.686;2022-07-29T01:04:48;14.80;;;2.70;;
42662;SDS011;44330;51.360;6.686;2022-07-29T01:07:14;11.80;;;2.03;;
42662;SDS011;44330;51.360;6.686;2022-07-29T01:09:40;4.65;;;1.27;;
42662;SDS011;44330;51.360;6.686;2022-07-29T01:12:07;8.13;;;1.92;;
42662;SDS011;44330;51.360;6.686;2022-07-29T01:14:33;4.97;;;2.00;;
42662;SDS011;44330;51.360;6.686;2022-07-29T01:17:02;8.80;;;1.50;;
42662;SDS011;44330;51.360;6.686;2022-07-29T01:19:50;7.63;;;1.42;;
42662;SDS011;44330;51.360;6.686;2022-07-29T01:25:29;10.23;;;1.50;;
42662;SDS011;44330;51.360;6.686;2022-07-29T01:28:17;7.90;;;1.63;;
42662;SDS011;44330;51.360;6.686;2022-07-29T01:31:05;10.98;;;2.17;;
42662;SDS011;44330;51.360;6.686;2022-07-29T01:33:34;5.47;;;1.55;;
42662;SDS011;44330;51.360;6.686;2022-07-29T01:36:51;8.05;;;1.95;;
42662;SDS011;44330;51.360;6.686;2022-07-29T01:39:19;5.82;;;1.73;;
42662;SDS011;44330;51.360;6.686;2022-07-29T01:41:58;5.35;;;1.48;;
42662;SDS011;44330;51.360;6.686;2022-07-29T01:47:34;9.60;;;1.88;;
42662;SDS011;44330;51.360;6.686;2022-07-29T01:50:05;19.58;;;3.03;;
42662;SDS011;44330;51.360;6.686;2022-07-29T01:55:25;5.07;;;1.52;;
42662;SDS011;44330;51.360;6.686;2022-07-29T01:57:54;6.50;;;1.80;;
42662;SDS011;44330;51.360;6.686;2022-07-29T02:00:22;6.15;;;1.38;;
42662;SDS011;44330;51.360;6.686;2022-07-29T02:02:48;6.18;;;1.38;;
42662;SDS011;44330;51.360;6.686;2022-07-29T02:05:15;4.57;;;1.65;;
42662;SDS011;44330;51.360;6.686;2022-07-29T02:07:43;6.97;;;1.63;;
42662;SDS011;44330;51.360;6.686;2022-07-29T02:10:11;6.63;;;1.40;;
42662;SDS011;44330;51.360;6.686;2022-07-29T02:12:38;8.65;;;1.58;;
42662;SDS011;44330;51.360;6.686;2022-07-29T02:15:05;6.22;;;1.55;;
42662;SDS011;44330;51.360;6.686;2022-07-29T02:17:36;4.35;;;1.83;;
42662;SDS011;44330;51.360;6.686;2022-07-29T02:20:06;4.28;;;1.52;;
42662;SDS011;44330;51.360;6.686;2022-07-29T02:22:34;5.43;;;1.73;;
42662;SDS011;44330;51.360;6.686;2022-07-29T02:25:02;6.85;;;1.10;;
42662;SDS011;44330;51.360;6.686;2022-07-29T02:27:29;8.93;;;1.90;;
42662;SDS011;44330;51.360;6.686;2022-07-29T02:29:58;6.25;;;1.60;;
42662;SDS011;44330;51.360;6.686;2022-07-29T02:32:26;7.22;;;1.63;;
42662;SDS011;44330;51.360;6.686;2022-07-29T02:34:53;8.70;;;1.85;;
42662;SDS011;44330;51.360;6.686;2022-07-29T02:37:20;9.27;;;1.75;;
42662;SDS011;44330;51.360;6.686;2022-07-29T02:39:47;12.85;;;1.50;;
42662;SDS011;44330;51.360;6.686;2022-07-29T02:42:17;3.42;;;1.20;;
42662;SDS011;44330;51.360;6.686;2022-07-29T02:44:43;5.95;;;1.65;;
42662;SDS011;44330;51.360;6.686;2022-07-29T02:49:52;10.55;;;2.15;;
42662;SDS011;44330;51.360;6.686;2022-07-29T02:52:30;6.57;;;1.40;;
42662;SDS011;44330;51.360;6.686;2022-07-29T02:55:07;8.73;;;1.70;;
42662;SDS011;44330;51.360;6.686;2022-07-29T02:57:44;3.20;;;1.08;;
42662;SDS011;44330;51.360;6.686;2022-07-29T03:00:47;5.07;;;1.58;;
42662;SDS011;44330;51.360;6.686;2022-07-29T03:03:16;3.72;;;1.60;;
42662;SDS011;44330;51.360;6.686;2022-07-29T03:05:44;5.03;;;1.30;;
42662;SDS011;44330;51.360;6.686;2022-07-29T03:08:10;3.47;;;1.20;;
42662;SDS011;44330;51.360;6.686;2022-07-29T03:10:39;5.93;;;1.25;;
42662;SDS011;44330;51.360;6.686;2022-07-29T03:13:08;5.13;;;1.02;;
42662;SDS011;44330;51.360;6.686;2022-07-29T03:15:35;8.18;;;1.67;;
42662;SDS011;44330;51.360;6.686;2022-07-29T03:18:01;5.10;;;1.30;;
42662;SDS011;44330;51.360;6.686;2022-07-29T03:20:27;2.95;;;0.82;;
42662;SDS011;44330;51.360;6.686;2022-07-29T03:22:53;8.85;;;1.20;;
42662;SDS011;44330;51.360;6.686;2022-07-29T03:25:19;6.85;;;2.17;;
42662;SDS011;44330;51.360;6.686;2022-07-29T03:27:45;4.85;;;1.90;;
42662;SDS011;44330;51.360;6.686;2022-07-29T03:30:12;4.32;;;1.23;;
42662;SDS011;44330;51.360;6.686;2022-07-29T03:32:38;2.42;;;1.20;;
42662;SDS011;44330;51.360;6.686;2022-07-29T03:35:05;9.52;;;1.42;;
42662;SDS011;44330;51.360;6.686;2022-07-29T03:37:31;5.10;;;1.02;;
42662;SDS011;44330;51.360;6.686;2022-07-29T03:39:58;3.90;;;1.15;;
42662;SDS011;44330;51.360;6.686;2022-07-29T03:42:27;8.40;;;1.37;;
42662;SDS011;44330;51.360;6.686;2022-07-29T03:44:56;5.10;;;1.35;;
42662;SDS011;44330;51.360;6.686;2022-07-29T03:47:25;9.57;;;1.30;;
42662;SDS011;44330;51.360;6.686;2022-07-29T03:49:53;11.70;;;1.52;;
42662;SDS011;44330;51.360;6.686;2022-07-29T03:54:57;4.25;;;1.50;;
42662;SDS011;44330;51.360;6.686;2022-07-29T03:57:23;6.70;;;1.45;;
42662;SDS011;44330;51.360;6.686;2022-07-29T03:59:52;6.03;;;2.10;;
42662;SDS011;44330;51.360;6.686;2022-07-29T04:02:18;5.40;;;1.75;;
42662;SDS011;44330;51.360;6.686;2022-07-29T04:04:44;8.18;;;1.77;;
42662;SDS011;44330;51.360;6.686;2022-07-29T04:07:13;4.22;;;1.70;;
42662;SDS011;44330;51.360;6.686;2022-07-29T04:09:40;7.30;;;2.10;;
42662;SDS011;44330;51.360;6.686;2022-07-29T04:12:06;4.20;;;1.63;;
42662;SDS011;44330;51.360;6.686;2022-07-29T04:14:33;6.75;;;1.75;;
42662;SDS011;44330;51.360;6.686;2022-07-29T04:17:00;7.63;;;1.80;;
42662;SDS011;44330;51.360;6.686;2022-07-29T04:19:26;6.72;;;2.00;;
42662;SDS011;44330;51.360;6.686;2022-07-29T04:21:51;10.00;;;2.20;;
42662;SDS011;44330;51.360;6.686;2022-07-29T04:24:17;10.15;;;2.00;;
42662;SDS011;44330;51.360;6.686;2022-07-29T04:26:43;5.75;;;2.42;;
42662;SDS011;44330;51.360;6.686;2022-07-29T04:29:09;5.70;;;2.65;;
42662;SDS011;44330;51.360;6.686;2022-07-29T04:31:36;8.05;;;2.38;;
42662;SDS011;44330;51.360;6.686;2022-07-29T04:34:02;11.43;;;2.67;;
42662;SDS011;44330;51.360;6.686;2022-07-29T04:36:28;8.18;;;2.25;;
42662;SDS011;44330;51.360;6.686;2022-07-29T04:38:53;9.48;;;2.75;;
42662;SDS011;44330;51.360;6.686;2022-07-29T04:41:19;3.95;;;2.10;;
42662;SDS011;44330;51.360;6.686;2022-07-29T04:43:44;9.38;;;2.60;;
42662;SDS011;44330;51.360;6.686;2022-07-29T04:46:10;5.40;;;2.10;;
42662;SDS011;44330;51.360;6.686;2022-07-29T04:48:35;11.32;;;2.60;;
42662;SDS011;44330;51.360;6.686;2022-07-29T04:51:01;9.48;;;2.55;;
42662;SDS011;44330;51.360;6.686;2022-07-29T04:53:27;8.48;;;3.10;;
42662;SDS011;44330;51.360;6.686;2022-07-29T04:55:52;9.40;;;2.92;;
42662;SDS011;44330;51.360;6.686;2022-07-29T04:58:18;7.85;;;2.90;;
42662;SDS011;44330;51.360;6.686;2022-07-29T05:00:43;5.95;;;2.70;;
42662;SDS011;44330;51.360;6.686;2022-07-29T05:03:09;7.85;;;2.63;;
42662;SDS011;44330;51.360;6.686;2022-07-29T05:05:34;10.65;;;2.85;;
42662;SDS011;44330;51.360;6.686;2022-07-29T05:08:00;6.53;;;2.92;;
42662;SDS011;44330;51.360;6.686;2022-07-29T05:10:26;5.15;;;3.15;;
42662;SDS011;44330;51.360;6.686;2022-07-29T05:12:52;10.02;;;4.47;;
42662;SDS011;44330;51.360;6.686;2022-07-29T05:15:17;22.35;;;4.70;;
42662;SDS011;44330;51.360;6.686;2022-07-29T05:17:43;12.30;;;4.53;;
42662;SDS011;44330;51.360;6.686;2022-07-29T05:20:09;14.07;;;5.28;;
42662;SDS011;44330;51.360;6.686;2022-07-29T05:22:35;13.30;;;5.03;;
42662;SDS011;44330;51.360;6.686;2022-07-29T05:25:00;19.00;;;4.38;;
42662;SDS011;44330;51.360;6.686;2022-07-29T05:27:27;16.80;;;4.60;;
42662;SDS011;44330;51.360;6.686;2022-07-29T05:29:52;10.40;;;3.13;;
42662;SDS011;44330;51.360;6.686;2022-07-29T05:32:18;9.27;;;2.53;;
42662;SDS011;44330;51.360;6.686;2022-07-29T05:34:43;9.75;;;2.80;;
42662;SDS011;44330;51.360;6.686;2022-07-29T05:37:09;9.63;;;2.67;;
42662;SDS011;44330;51.360;6.686;2022-07-29T05:39:34;5.07;;;2.72;;
42662;SDS011;44330;51.360;6.686;2022-07-29T05:42:00;9.65;;;3.45;;
42662;SDS011;44330;51.360;6.686;2022-07-29T05:44:25;7.90;;;2.65;;
42662;SDS011;44330;51.360;6.686;2022-07-29T05:46:51;17.73;;;3.42;;
42662;SDS011;44330;51.360;6.686;2022-07-29T05:49:16;7.38;;;3.03;;
42662;SDS011;44330;51.360;6.686;2022-07-29T05:51:42;12.52;;;2.75;;
42662;SDS011;44330;51.360;6.686;2022-07-29T05:54:08;7.82;;;3.42;;
42662;SDS011;44330;51.360;6.686;2022-07-29T05:56:35;8.27;;;2.95;;
42662;SDS011;44330;51.360;6.686;2022-07-29T05:59:01;5.10;;;2.45;;
42662;SDS011;44330;51.360;6.686;2022-07-29T06:01:27;7.38;;;2.80;;
42662;SDS011;44330;51.360;6.686;2022-07-29T06:03:52;8.48;;;2.70;;
42662;SDS011;44330;51.360;6.686;2022-07-29T06:06:18;12.57;;;2.55;;
42662;SDS011;44330;51.360;6.686;2022-07-29T06:08:43;9.30;;;2.92;;
42662;SDS011;44330;51.360;6.686;2022-07-29T06:11:09;8.18;;;3.03;;
42662;SDS011;44330;51.360;6.686;2022-07-29T06:13:34;11.38;;;2.95;;
42662;SDS011;44330;51.360;6.686;2022-07-29T06:16:00;13.13;;;2.97;;
42662;SDS011;44330;51.360;6.686;2022-07-29T06:18:26;10.30;;;3.30;;
42662;SDS011;44330;51.360;6.686;2022-07-29T06:20:51;6.53;;;2.78;;
42662;SDS011;44330;51.360;6.686;2022-07-29T06:23:18;11.98;;;3.13;;
42662;SDS011;44330;51.360;6.686;2022-07-29T06:25:44;10.23;;;2.60;;
42662;SDS011;44330;51.360;6.686;2022-07-29T06:28:10;9.90;;;3.22;;
42662;SDS011;44330;51.360;6.686;2022-07-29T06:30:36;9.00;;;3.60;;
42662;SDS011;44330;51.360;6.686;2022-07-29T06:33:02;9.05;;;3.00;;
42662;SDS011;44330;51.360;6.686;2022-07-29T06:35:28;11.82;;;3.45;;
42662;SDS011;44330;51.360;6.686;2022-07-29T06:37:54;6.40;;;2.90;;
42662;SDS011;44330;51.360;6.686;2022-07-29T06:40:20;12.45;;;3.25;;
42662;SDS011;44330;51.360;6.686;2022-07-29T06:43:04;4.68;;;3.08;;
42662;SDS011;44330;51.360;6.686;2022-07-29T06:45:30;10.50;;;3.08;;
42662;SDS011;44330;51.360;6.686;2022-07-29T06:47:58;17.98;;;3.35;;
42662;SDS011;44330;51.360;6.686;2022-07-29T06:50:24;13.07;;;2.92;;
42662;SDS011;44330;51.360;6.686;2022-07-29T06:52:50;8.95;;;3.20;;
42662;SDS011;44330;51.360;6.686;2022-07-29T06:55:15;13.38;;;3.50;;
42662;SDS011;44330;51.360;6.686;2022-07-29T06:57:41;14.52;;;3.50;;
42662;SDS011;44330;51.360;6.686;2022-07-29T07:00:06;12.70;;;2.97;;
42662;SDS011;44330;51.360;6.686;2022-07-29T07:02:32;8.52;;;2.88;;
42662;SDS011;44330;51.360;6.686;2022-07-29T07:04:58;6.75;;;2.50;;
42662;SDS011;44330;51.360;6.686;2022-07-29T07:07:24;8.90;;;2.60;;
42662;SDS011;44330;51.360;6.686;2022-07-29T07:09:50;12.25;;;3.30;;
42662;SDS011;44330;51.360;6.686;2022-07-29T07:12:15;10.20;;;2.67;;
42662;SDS011;44330;51.360;6.686;2022-07-29T07:14:41;9.45;;;3.13;;
42662;SDS011;44330;51.360;6.686;2022-07-29T07:17:06;7.05;;;3.00;;
42662;SDS011;44330;51.360;6.686;2022-07-29T07:19:32;8.80;;;2.83;;
42662;SDS011;44330;51.360;6.686;2022-07-29T07:21:58;8.85;;;3.78;;
42662;SDS011;44330;51.360;6.686;2022-07-29T07:24:23;9.00;;;3.60;;
42662;SDS011;44330;51.360;6.686;2022-07-29T07:26:49;17.63;;;4.03;;
42662;SDS011;44330;51.360;6.686;2022-07-29T07:29:15;6.30;;;3.55;;
42662;SDS011;44330;51.360;6.686;2022-07-29T07:31:40;16.20;;;4.40;;
42662;SDS011;44330;51.360;6.686;2022-07-29T07:34:06;8.75;;;3.20;;
42662;SDS011;44330;51.360;6.686;2022-07-29T07:36:31;9.15;;;4.15;;
42662;SDS011;44330;51.360;6.686;2022-07-29T07:38:57;10.60;;;4.15;;
42662;SDS011;44330;51.360;6.686;2022-07-29T07:41:22;9.07;;;3.65;;
42662;SDS011;44330;51.360;6.686;2022-07-29T07:43:48;10.13;;;4.07;;
42662;SDS011;44330;51.360;6.686;2022-07-29T07:46:14;11.95;;;4.55;;
42662;SDS011;44330;51.360;6.686;2022-07-29T07:48:40;9.93;;;3.75;;
42662;SDS011;44330;51.360;6.686;2022-07-29T07:51:06;11.63;;;4.35;;
42662;SDS011;44330;51.360;6.686;2022-07-29T07:53:32;10.10;;;3.90;;
42662;SDS011;44330;51.360;6.686;2022-07-29T07:55:58;11.32;;;4.57;;
42662;SDS011;44330;51.360;6.686;2022-07-29T07:58:23;11.43;;;4.50;;
42662;SDS011;44330;51.360;6.686;2022-07-29T08:00:49;8.70;;;4.28;;
42662;SDS011;44330;51.360;6.686;2022-07-29T08:03:14;9.43;;;4.57;;
42662;SDS011;44330;51.360;6.686;2022-07-29T08:05:40;14.60;;;4.63;;
42662;SDS011;44330;51.360;6.686;2022-07-29T08:08:06;7.57;;;3.65;;
42662;SDS011;44330;51.360;6.686;2022-07-29T08:10:32;10.35;;;4.43;;
42662;SDS011;44330;51.360;6.686;2022-07-29T08:13:16;9.45;;;4.80;;
42662;SDS011;44330;51.360;6.686;2022-07-29T08:15:42;16.33;;;5.07;;
42662;SDS011;44330;51.360;6.686;2022-07-29T08:18:09;10.60;;;4.20;;
42662;SDS011;44330;51.360;6.686;2022-07-29T08:20:35;9.40;;;5.03;;
42662;SDS011;44330;51.360;6.686;2022-07-29T08:23:03;16.65;;;4.72;;
42662;SDS011;44330;51.360;6.686;2022-07-29T08:25:30;22.52;;;5.97;;
42662;SDS011;44330;51.360;6.686;2022-07-29T08:27:56;12.32;;;4.80;;
42662;SDS011;44330;51.360;6.686;2022-07-29T08:30:22;14.15;;;5.25;;
42662;SDS011;44330;51.360;6.686;2022-07-29T08:32:48;15.77;;;5.55;;
42662;SDS011;44330;51.360;6.686;2022-07-29T08:35:15;13.00;;;5.00;;
42662;SDS011;44330;51.360;6.686;2022-07-29T08:37:41;11.68;;;4.95;;
42662;SDS011;44330;51.360;6.686;2022-07-29T08:40:06;13.40;;;5.28;;
42662;SDS011;44330;51.360;6.686;2022-07-29T08:42:32;7.90;;;4.68;;
42662;SDS011;44330;51.360;6.686;2022-07-29T08:44:58;14.55;;;5.50;;
42662;SDS011;44330;51.360;6.686;2022-07-29T08:47:24;13.60;;;4.97;;
42662;SDS011;44330;51.360;6.686;2022-07-29T08:49:51;21.85;;;5.43;;
42662;SDS011;44330;51.360;6.686;2022-07-29T08:52:17;13.68;;;5.22;;
42662;SDS011;44330;51.360;6.686;2022-07-29T08:54:44;11.82;;;5.18;;
42662;SDS011;44330;51.360;6.686;2022-07-29T08:57:14;16.83;;;4.68;;
42662;SDS011;44330;51.360;6.686;2022-07-29T08:59:40;13.80;;;4.78;;
42662;SDS011;44330;51.360;6.686;2022-07-29T09:02:20;15.27;;;5.05;;
42662;SDS011;44330;51.360;6.686;2022-07-29T09:04:47;12.10;;;4.88;;
42662;SDS011;44330;51.360;6.686;2022-07-29T09:07:14;11.73;;;5.00;;
42662;SDS011;44330;51.360;6.686;2022-07-29T09:09:41;13.45;;;4.60;;
42662;SDS011;44330;51.360;6.686;2022-07-29T09:12:08;14.90;;;4.80;;
42662;SDS011;44330;51.360;6.686;2022-07-29T09:14:36;12.35;;;5.35;;
42662;SDS011;44330;51.360;6.686;2022-07-29T09:17:05;11.10;;;4.97;;
42662;SDS011;44330;51.360;6.686;2022-07-29T09:19:32;12.70;;;4.80;;
42662;SDS011;44330;51.360;6.686;2022-07-29T09:22:00;13.20;;;4.82;;
42662;SDS011;44330;51.360;6.686;2022-07-29T09:27:25;18.25;;;5.10;;
42662;SDS011;44330;51.360;6.686;2022-07-29T09:30:02;16.77;;;4.10;;
42662;SDS011;44330;51.360;6.686;2022-07-29T09:32:32;13.73;;;4.80;;
42662;SDS011;44330;51.360;6.686;2022-07-29T09:35:21;13.40;;;4.18;;
42662;SDS011;44330;51.360;6.686;2022-07-29T09:37:49;9.70;;;4.20;;
42662;SDS011;44330;51.360;6.686;2022-07-29T09:40:15;12.35;;;4.13;;
42662;SDS011;44330;51.360;6.686;2022-07-29T09:42:48;13.52;;;4.20;;
42662;SDS011;44330;51.360;6.686;2022-07-29T09:45:25;12.25;;;4.75;;
42662;SDS011;44330;51.360;6.686;2022-07-29T09:47:58;12.93;;;4.40;;
42662;SDS011;44330;51.360;6.686;2022-07-29T09:50:41;16.25;;;4.88;;
42662;SDS011;44330;51.360;6.686;2022-07-29T09:53:08;10.82;;;4.90;;
42662;SDS011;44330;51.360;6.686;2022-07-29T09:55:47;14.80;;;4.72;;
42662;SDS011;44330;51.360;6.686;2022-07-29T09:58:17;12.48;;;4.60;;
42662;SDS011;44330;51.360;6.686;2022-07-29T10:00:44;18.52;;;5.50;;
42662;SDS011;44330;51.360;6.686;2022-07-29T10:03:12;31.05;;;6.30;;
42662;SDS011;44330;51.360;6.686;2022-07-29T10:05:38;15.45;;;5.60;;
42662;SDS011;44330;51.360;6.686;2022-07-29T10:08:04;13.30;;;4.95;;
42662;SDS011;44330;51.360;6.686;2022-07-29T10:10:31;15.95;;;5.65;;
42662;SDS011;44330;51.360;6.686;2022-07-29T10:12:59;13.35;;;5.72;;
42662;SDS011;44330;51.360;6.686;2022-07-29T10:15:28;15.02;;;4.38;;
42662;SDS011;44330;51.360;6.686;2022-07-29T10:17:57;16.20;;;5.25;;
42662;SDS011;44330;51.360;6.686;2022-07-29T10:20:23;8.93;;;4.63;;
42662;SDS011;44330;51.360;6.686;2022-07-29T10:22:50;11.20;;;4.18;;
42662;SDS011;44330;51.360;6.686;2022-07-29T10:25:16;14.98;;;3.38;;
42662;SDS011;44330;51.360;6.686;2022-07-29T10:27:43;18.88;;;4.47;;
42662;SDS011;44330;51.360;6.686;2022-07-29T10:30:10;8.00;;;3.95;;
42662;SDS011;44330;51.360;6.686;2022-07-29T10:35:44;16.23;;;4.57;;
42662;SDS011;44330;51.360;6.686;2022-07-29T10:38:33;12.63;;;4.05;;
42662;SDS011;44330;51.360;6.686;2022-07-29T10:43:47;9.90;;;3.30;;
42662;SDS011;44330;51.360;6.686;2022-07-29T10:46:13;21.13;;;4.13;;
42662;SDS011;44330;51.360;6.686;2022-07-29T10:54:15;9.63;;;4.40;;
42662;SDS011;44330;51.360;6.686;2022-07-29T11:05:20;17.90;;;5.50;;
42662;SDS011;44330;51.360;6.686;2022-07-29T11:10:41;11.23;;;4.25;;
42662;SDS011;44330;51.360;6.686;2022-07-29T11:13:07;18.60;;;5.20;;
42662;SDS011;44330;51.360;6.686;2022-07-29T11:15:52;10.10;;;4.20;;
42662;SDS011;44330;51.360;6.686;2022-07-29T11:18:22;13.50;;;4.78;;
42662;SDS011;44330;51.360;6.686;2022-07-29T11:20:48;10.02;;;4.65;;
42662;SDS011;44330;51.360;6.686;2022-07-29T11:28:36;14.43;;;5.00;;
42662;SDS011;44330;51.360;6.686;2022-07-29T11:31:13;8.60;;;3.72;;
42662;SDS011;44330;51.360;6.686;2022-07-29T11:33:42;11.20;;;3.95;;
42662;SDS011;44330;51.360;6.686;2022-07-29T11:36:13;13.75;;;4.68;;
42662;SDS011;44330;51.360;6.686;2022-07-29T11:38:40;14.27;;;4.55;;
42662;SDS011;44330;51.360;6.686;2022-07-29T11:41:22;12.65;;;3.95;;
42662;SDS011;44330;51.360;6.686;2022-07-29T11:43:52;5.53;;;3.15;;
42662;SDS011;44330;51.360;6.686;2022-07-29T11:49:12;8.55;;;3.50;;
42662;SDS011;44330;51.360;6.686;2022-07-29T11:51:38;11.30;;;3.50;;
42662;SDS011;44330;51.360;6.686;2022-07-29T11:54:04;8.88;;;3.15;;
42662;SDS011;44330;51.360;6.686;2022-07-29T11:56:30;9.75;;;3.35;;
42662;SDS011;44330;51.360;6.686;2022-07-29T11:59:07;8.55;;;3.63;;
42662;SDS011;44330;51.360;6.686;2022-07-29T12:01:34;7.85;;;3.00;;
42662;SDS011;44330;51.360;6.686;2022-07-29T12:04:06;5.85;;;2.78;;
42662;SDS011;44330;51.360;6.686;2022-07-29T12:06:33;7.20;;;3.67;;
42662;SDS011;44330;51.360;6.686;2022-07-29T12:08:59;7.32;;;3.20;;
42662;SDS011;44330;51.360;6.686;2022-07-29T12:11:25;9.80;;;3.50;;
42662;SDS011;44330;51.360;6.686;2022-07-29T12:13:51;7.57;;;3.88;;
42662;SDS011;44330;51.360;6.686;2022-07-29T12:16:21;10.20;;;3.95;;
42662;SDS011;44330;51.360;6.686;2022-07-29T12:18:56;6.53;;;3.67;;
42662;SDS011;44330;51.360;6.686;2022-07-29T12:21:22;11.48;;;2.92;;
42662;SDS011;44330;51.360;6.686;2022-07-29T12:23:57;11.10;;;3.60;;
42662;SDS011;44330;51.360;6.686;2022-07-29T12:26:22;11.80;;;3.55;;
42662;SDS011;44330;51.360;6.686;2022-07-29T12:28:48;7.63;;;3.38;;
42662;SDS011;44330;51.360;6.686;2022-07-29T12:31:14;6.75;;;2.80;;
42662;SDS011;44330;51.360;6.686;2022-07-29T12:33:40;4.05;;;2.35;;
42662;SDS011;44330;51.360;6.686;2022-07-29T12:36:06;11.15;;;3.00;;
42662;SDS011;44330;51.360;6.686;2022-07-29T12:38:33;12.20;;;3.33;;
42662;SDS011;44330;51.360;6.686;2022-07-29T12:40:59;8.32;;;2.50;;
42662;SDS011;44330;51.360;6.686;2022-07-29T12:43:26;6.30;;;2.17;;
42662;SDS011;44330;51.360;6.686;2022-07-29T12:45:52;8.25;;;2.90;;
42662;SDS011;44330;51.360;6.686;2022-07-29T12:48:35;3.83;;;2.13;;
42662;SDS011;44330;51.360;6.686;2022-07-29T12:51:02;7.05;;;2.50;;
42662;SDS011;44330;51.360;6.686;2022-07-29T12:53:29;7.28;;;2.50;;
42662;SDS011;44330;51.360;6.686;2022-07-29T12:55:56;5.40;;;2.40;;
42662;SDS011;44330;51.360;6.686;2022-07-29T12:58:36;6.35;;;2.30;;
42662;SDS011;44330;51.360;6.686;2022-07-29T13:06:38;9.15;;;2.35;;
42662;SDS011;44330;51.360;6.686;2022-07-29T13:11:37;5.13;;;2.00;;
42662;SDS011;44330;51.360;6.686;2022-07-29T13:14:05;9.82;;;2.42;;
42662;SDS011;44330;51.360;6.686;2022-07-29T13:19:03;7.63;;;2.55;;
42662;SDS011;44330;51.360;6.686;2022-07-29T13:21:29;7.60;;;2.65;;
42662;SDS011;44330;51.360;6.686;2022-07-29T13:23:54;7.05;;;2.70;;
42662;SDS011;44330;51.360;6.686;2022-07-29T13:26:20;5.47;;;2.28;;
42662;SDS011;44330;51.360;6.686;2022-07-29T13:28:45;6.80;;;2.40;;
42662;SDS011;44330;51.360;6.686;2022-07-29T13:31:11;8.55;;;2.70;;
42662;SDS011;44330;51.360;6.686;2022-07-29T13:33:37;4.55;;;2.42;;
42662;SDS011;44330;51.360;6.686;2022-07-29T13:36:02;5.68;;;2.30;;
42662;SDS011;44330;51.360;6.686;2022-07-29T13:38:28;7.85;;;2.38;;
42662;SDS011;44330;51.360;6.686;2022-07-29T13:40:53;8.98;;;2.53;;
42662;SDS011;44330;51.360;6.686;2022-07-29T13:43:19;7.90;;;2.67;;
42662;SDS011;44330;51.360;6.686;2022-07-29T13:45:44;10.10;;;2.80;;
42662;SDS011;44330;51.360;6.686;2022-07-29T13:48:10;13.65;;;2.80;;
42662;SDS011;44330;51.360;6.686;2022-07-29T13:50:36;8.02;;;2.95;;
42662;SDS011;44330;51.360;6.686;2022-07-29T13:53:01;10.75;;;3.25;;
42662;SDS011;44330;51.360;6.686;2022-07-29T13:55:27;12.95;;;3.55;;
42662;SDS011;44330;51.360;6.686;2022-07-29T13:57:53;9.52;;;2.97;;
42662;SDS011;44330;51.360;6.686;2022-07-29T14:00:18;8.20;;;2.80;;
42662;SDS011;44330;51.360;6.686;2022-07-29T14:02:44;10.75;;;2.90;;
42662;SDS011;44330;51.360;6.686;2022-07-29T14:05:10;12.60;;;2.95;;
42662;SDS011;44330;51.360;6.686;2022-07-29T14:07:36;10.82;;;3.10;;
42662;SDS011;44330;51.360;6.686;2022-07-29T14:10:03;4.75;;;2.10;;
42662;SDS011;44330;51.360;6.686;2022-07-29T14:12:30;3.92;;;1.75;;
42662;SDS011;44330;51.360;6.686;2022-07-29T14:14:55;5.90;;;2.50;;
42662;SDS011;44330;51.360;6.686;2022-07-29T14:17:21;9.90;;;2.10;;
42662;SDS011;44330;51.360;6.686;2022-07-29T14:19:47;7.07;;;2.40;;
42662;SDS011;44330;51.360;6.686;2022-07-29T14:22:13;5.18;;;1.60;;
42662;SDS011;44330;51.360;6.686;2022-07-29T14:24:39;5.50;;;2.20;;
42662;SDS011;44330;51.360;6.686;2022-07-29T14:27:05;8.52;;;2.13;;
42662;SDS011;44330;51.360;6.686;2022-07-29T14:29:32;8.40;;;2.58;;
42662;SDS011;44330;51.360;6.686;2022-07-29T14:31:57;6.60;;;2.47;;
42662;SDS011;44330;51.360;6.686;2022-07-29T14:34:23;4.72;;;2.13;;
42662;SDS011;44330;51.360;6.686;2022-07-29T14:36:49;3.92;;;2.00;;
42662;SDS011;44330;51.360;6.686;2022-07-29T14:39:14;6.57;;;2.33;;
42662;SDS011;44330;51.360;6.686;2022-07-29T14:41:41;5.13;;;2.22;;
42662;SDS011;44330;51.360;6.686;2022-07-29T14:44:07;16.33;;;2.83;;
42662;SDS011;44330;51.360;6.686;2022-07-29T14:46:33;8.50;;;2.50;;
42662;SDS011;44330;51.360;6.686;2022-07-29T14:48:59;9.52;;;2.75;;
42662;SDS011;44330;51.360;6.686;2022-07-29T14:51:24;5.57;;;2.53;;
42662;SDS011;44330;51.360;6.686;2022-07-29T14:53:50;7.15;;;2.30;;
42662;SDS011;44330;51.360;6.686;2022-07-29T14:56:15;6.15;;;2.47;;
42662;SDS011;44330;51.360;6.686;2022-07-29T14:58:41;6.85;;;2.10;;
42662;SDS011;44330;51.360;6.686;2022-07-29T15:01:06;8.90;;;2.35;;
42662;SDS011;44330;51.360;6.686;2022-07-29T15:03:32;6.57;;;2.08;;
42662;SDS011;44330;51.360;6.686;2022-07-29T15:05:58;5.43;;;2.13;;
42662;SDS011;44330;51.360;6.686;2022-07-29T15:08:23;4.32;;;1.85;;
42662;SDS011;44330;51.360;6.686;2022-07-29T15:10:50;5.05;;;1.90;;
42662;SDS011;44330;51.360;6.686;2022-07-29T15:13:15;10.18;;;2.30;;
42662;SDS011;44330;51.360;6.686;2022-07-29T15:15:41;8.07;;;2.42;;
42662;SDS011;44330;51.360;6.686;2022-07-29T15:18:06;4.97;;;2.10;;
42662;SDS011;44330;51.360;6.686;2022-07-29T15:20:32;6.43;;;2.28;;
42662;SDS011;44330;51.360;6.686;2022-07-29T15:22:58;6.50;;;1.70;;
42662;SDS011;44330;51.360;6.686;2022-07-29T15:25:24;6.72;;;2.22;;
42662;SDS011;44330;51.360;6.686;2022-07-29T15:27:50;7.43;;;2.20;;
42662;SDS011;44330;51.360;6.686;2022-07-29T15:30:16;11.40;;;2.60;;
42662;SDS011;44330;51.360;6.686;2022-07-29T15:32:42;5.88;;;1.95;;
42662;SDS011;44330;51.360;6.686;2022-07-29T15:35:09;5.78;;;1.73;;
42662;SDS011;44330;51.360;6.686;2022-07-29T15:37:35;5.43;;;2.00;;
42662;SDS011;44330;51.360;6.686;2022-07-29T15:40:02;3.78;;;1.80;;
42662;SDS011;44330;51.360;6.686;2022-07-29T15:42:29;5.25;;;1.92;;
42662;SDS011;44330;51.360;6.686;2022-07-29T15:44:54;5.85;;;1.90;;